Time;durP1;ratioP1;P1;durP2;ratioP2;P2;SDS_P1;SDS_P2;PMS_P1;PMS_P2;Temp;Humidity;BMP_temperature;BMP_pressure;BME280_temperature;BME280_humidity;BME280_pressure;Samples;Min_cycle;Max_cycle;Signal;HPM_P1;HPM_P2
2022/03/01 00:01:39;;;;;;;13.67;7.57;;;;;;;;;;4986106;28;20031;-56
2022/03/01 00:04:05;;;;;;;11.00;7.43;;;;;;;;;;4985757;28;20122;-58
2022/03/01 00:06:31;;;;;;;17.77;8.80;;;;;;;;;;4985898;28;20113;-56
2022/03/01 00:08:57;;;;;;;10.30;7.43;;;;;;;;;;4992521;28;20039;-54
2022/03/01 00:11:23;;;;;;;15.90;8.77;;;;;;;;;;4992199;28;20123;-57
2022/03/01 00:13:50;;;;;;;12.83;7.33;;;;;;;;;;4993066;28;20034;-56
2022/03/01 00:16:16;;;;;;;11.57;7.50;;;;;;;;;;4986778;28;20403;-57
2022/03/01 00:18:43;;;;;;;12.20;7.13;;;;;;;;;;4992812;28;20026;-56
2022/03/01 00:24:12;;;;;;;12.33;6.80;;;;;;;;;;4976909;28;20111;-57
2022/03/01 00:26:39;;;;;;;12.20;7.93;;;;;;;;;;4973165;28;20031;-58
2022/03/01 00:29:05;;;;;;;9.50;6.63;;;;;;;;;;4972017;28;20030;-57
2022/03/01 00:31:31;;;;;;;12.13;6.93;;;;;;;;;;4972216;28;20027;-55
2022/03/01 00:33:57;;;;;;;10.40;6.60;;;;;;;;;;4972833;28;20065;-54
2022/03/01 00:36:23;;;;;;;12.53;6.40;;;;;;;;;;4987357;28;20038;-57
2022/03/01 00:38:49;;;;;;;12.13;6.93;;;;;;;;;;4992687;28;20092;-56
2022/03/01 00:41:24;;;;;;;8.17;5.83;;;;;;;;;;4991494;28;20037;-56
2022/03/01 00:43:50;;;;;;;9.63;6.30;;;;;;;;;;4992458;28;20033;-57
2022/03/01 00:46:17;;;;;;;10.47;6.03;;;;;;;;;;4991736;28;20029;-56
2022/03/01 00:48:43;;;;;;;11.43;5.53;;;;;;;;;;4992343;28;20099;-56
2022/03/01 00:51:09;;;;;;;13.03;5.93;;;;;;;;;;4979643;28;20023;-56
2022/03/01 00:53:35;;;;;;;11.83;5.83;;;;;;;;;;4981680;28;20031;-57
2022/03/01 00:56:04;;;;;;;15.07;6.33;;;;;;;;;;4990214;28;20126;-53
2022/03/01 00:58:31;;;;;;;9.80;5.10;;;;;;;;;;4992200;28;20416;-56
2022/03/01 01:00:57;;;;;;;15.10;5.97;;;;;;;;;;4980981;28;20069;-56
2022/03/01 01:03:23;;;;;;;7.63;5.30;;;;;;;;;;4972862;28;20038;-53
2022/03/01 01:05:49;;;;;;;10.63;5.37;;;;;;;;;;4978458;28;20022;-56
2022/03/01 01:08:15;;;;;;;8.33;4.90;;;;;;;;;;4979208;28;20469;-56
2022/03/01 01:10:41;;;;;;;8.57;5.37;;;;;;;;;;4972318;28;20136;-55
2022/03/01 01:13:07;;;;;;;7.60;5.57;;;;;;;;;;4972862;28;20031;-54
2022/03/01 01:15:33;;;;;;;8.60;4.90;;;;;;;;;;4978469;28;20033;-55
2022/03/01 01:17:59;;;;;;;9.50;6.13;;;;;;;;;;4990742;28;20037;-56
2022/03/01 01:20:25;;;;;;;8.33;5.63;;;;;;;;;;4989662;28;20462;-56
2022/03/01 01:22:52;;;;;;;8.03;5.23;;;;;;;;;;4991390;28;20053;-56
2022/03/01 01:25:23;;;;;;;8.73;5.80;;;;;;;;;;4990960;28;20109;-53
2022/03/01 01:27:53;;;;;;;9.43;6.23;;;;;;;;;;4991768;28;20037;-57
2022/03/01 01:30:21;;;;;;;9.13;5.43;;;;;;;;;;4990653;28;20380;-55
2022/03/01 01:32:48;;;;;;;10.87;5.60;;;;;;;;;;4991860;28;20057;-55
2022/03/01 01:35:14;;;;;;;11.13;5.23;;;;;;;;;;4988334;28;20038;-53
2022/03/01 01:37:41;;;;;;;8.03;5.43;;;;;;;;;;4971767;28;20031;-56
2022/03/01 01:40:08;;;;;;;10.33;5.23;;;;;;;;;;4973122;28;20038;-56
2022/03/01 01:42:35;;;;;;;11.17;5.63;;;;;;;;;;4991473;28;20022;-54
2022/03/01 01:45:02;;;;;;;7.73;4.87;;;;;;;;;;4990446;28;20472;-52
2022/03/01 01:47:28;;;;;;;10.00;5.40;;;;;;;;;;4972664;28;20027;-57
2022/03/01 01:49:54;;;;;;;11.73;5.83;;;;;;;;;;4979378;28;20087;-52
2022/03/01 01:52:20;;;;;;;9.40;4.67;;;;;;;;;;4989171;28;20086;-53
2022/03/01 01:55:04;;;;;;;8.03;5.00;;;;;;;;;;4981070;28;20027;-55
2022/03/01 01:57:30;;;;;;;9.57;4.82;;;;;;;;;;4991437;28;20035;-57
2022/03/01 01:59:57;;;;;;;12.40;5.60;;;;;;;;;;4991358;28;20507;-56
2022/03/01 02:02:23;;;;;;;10.87;5.13;;;;;;;;;;4990412;28;20369;-54
2022/03/01 02:04:49;;;;;;;9.10;5.30;;;;;;;;;;4990502;28;20062;-55
2022/03/01 02:07:16;;;;;;;9.30;5.00;;;;;;;;;;4988810;28;20480;-57
2022/03/01 02:09:42;;;;;;;8.67;4.60;;;;;;;;;;4990655;28;20033;-55
2022/03/01 02:12:08;;;;;;;7.57;4.87;;;;;;;;;;4989755;28;20376;-56
2022/03/01 02:14:35;;;;;;;6.83;4.43;;;;;;;;;;4990031;28;20041;-54
2022/03/01 02:17:03;;;;;;;8.37;4.90;;;;;;;;;;4988645;28;20470;-56
2022/03/01 02:19:29;;;;;;;7.87;4.80;;;;;;;;;;4987671;28;20389;-55
2022/03/01 02:21:55;;;;;;;6.27;4.70;;;;;;;;;;4978526;28;20060;-55
2022/03/01 02:24:22;;;;;;;6.07;4.60;;;;;;;;;;4971601;28;20027;-56
2022/03/01 02:26:48;;;;;;;9.80;5.40;;;;;;;;;;4971385;28;20138;-55
2022/03/01 02:29:14;;;;;;;8.47;4.80;;;;;;;;;;4970540;28;20516;-57
2022/03/01 02:31:40;;;;;;;8.17;4.80;;;;;;;;;;4981076;28;20031;-58
2022/03/01 02:34:06;;;;;;;8.13;4.67;;;;;;;;;;4990818;28;20022;-58
2022/03/01 02:36:32;;;;;;;9.47;5.07;;;;;;;;;;4981361;28;20461;-53
2022/03/01 02:38:59;;;;;;;10.67;4.13;;;;;;;;;;4977020;28;20034;-58
2022/03/01 02:41:26;;;;;;;8.17;4.70;;;;;;;;;;4975270;28;20489;-56
2022/03/01 02:44:14;;;;;;;10.20;4.10;;;;;;;;;;4972711;28;20038;-57
2022/03/01 02:46:41;;;;;;;8.03;4.90;;;;;;;;;;4988270;28;20622;-57
2022/03/01 02:49:08;;;;;;;6.70;4.63;;;;;;;;;;4981025;28;20062;-56
2022/03/01 02:51:34;;;;;;;8.97;4.60;;;;;;;;;;4975846;28;20389;-59
2022/03/01 02:54:00;;;;;;;7.70;4.27;;;;;;;;;;4991291;28;20023;-57
2022/03/01 02:56:26;;;;;;;6.97;4.60;;;;;;;;;;4993244;28;20042;-57
2022/03/01 02:58:55;;;;;;;8.10;5.30;;;;;;;;;;4987003;28;20030;-55
2022/03/01 03:01:22;;;;;;;8.70;4.87;;;;;;;;;;4981639;28;20034;-57
2022/03/01 03:03:48;;;;;;;9.07;4.40;;;;;;;;;;4994010;28;20022;-57
2022/03/01 03:06:13;;;;;;;7.30;4.93;;;;;;;;;;4988128;28;20042;-56
2022/03/01 03:08:39;;;;;;;8.37;4.53;;;;;;;;;;4974370;28;20042;-56
2022/03/01 03:11:07;;;;;;;5.40;3.53;;;;;;;;;;4974335;28;20027;-57
2022/03/01 03:13:33;;;;;;;9.67;4.87;;;;;;;;;;4974514;28;20019;-56
2022/03/01 03:15:59;;;;;;;6.57;4.30;;;;;;;;;;4977108;28;20039;-57
2022/03/01 03:18:25;;;;;;;8.93;4.43;;;;;;;;;;4994074;28;20402;-54
2022/03/01 03:20:52;;;;;;;7.63;4.37;;;;;;;;;;4992312;28;20071;-56
2022/03/01 03:23:18;;;;;;;8.67;4.07;;;;;;;;;;4993723;28;20503;-56
2022/03/01 03:25:44;;;;;;;7.10;3.97;;;;;;;;;;4992701;28;20022;-53
2022/03/01 03:28:10;;;;;;;7.63;3.90;;;;;;;;;;4974492;28;20136;-53
2022/03/01 03:30:36;;;;;;;7.40;4.47;;;;;;;;;;4974162;28;20031;-56
2022/03/01 03:33:02;;;;;;;8.70;4.27;;;;;;;;;;4992487;28;20062;-56
2022/03/01 03:35:28;;;;;;;7.70;4.10;;;;;;;;;;4993400;28;20034;-57
2022/03/01 03:37:54;;;;;;;5.53;4.00;;;;;;;;;;4974920;28;20118;-56
2022/03/01 03:46:28;;;;;;;6.53;4.43;;;;;;;;;;4984412;28;20130;-57
2022/03/01 03:49:00;;;;;;;8.13;4.57;;;;;;;;;;4993588;28;20121;-55
2022/03/01 03:51:26;;;;;;;7.33;4.40;;;;;;;;;;4992090;28;20080;-57
2022/03/01 03:53:52;;;;;;;7.93;4.43;;;;;;;;;;4993259;28;20117;-56
2022/03/01 03:56:18;;;;;;;5.93;4.30;;;;;;;;;;4992283;28;20403;-56
2022/03/01 03:58:45;;;;;;;7.90;4.40;;;;;;;;;;4991908;28;20037;-57
2022/03/01 04:01:11;;;;;;;8.47;4.50;;;;;;;;;;4976915;28;20037;-58
2022/03/01 04:03:37;;;;;;;8.37;4.10;;;;;;;;;;4973912;28;20499;-56
2022/03/01 04:06:04;;;;;;;8.83;4.17;;;;;;;;;;4987771;28;20032;-55
2022/03/01 04:08:30;;;;;;;6.47;4.23;;;;;;;;;;4988035;28;20423;-54
2022/03/01 04:10:56;;;;;;;7.17;4.20;;;;;;;;;;4973473;28;20071;-56
2022/03/01 04:13:23;;;;;;;8.90;4.20;;;;;;;;;;4973545;28;20076;-55
2022/03/01 04:15:49;;;;;;;6.73;4.07;;;;;;;;;;4973596;28;20415;-53
2022/03/01 04:18:15;;;;;;;7.67;4.30;;;;;;;;;;4973503;28;20148;-56
2022/03/01 04:20:41;;;;;;;8.50;4.57;;;;;;;;;;4973218;28;20055;-57
2022/03/01 04:23:08;;;;;;;5.37;4.47;;;;;;;;;;4973607;28;20104;-54
2022/03/01 04:25:34;;;;;;;7.90;4.60;;;;;;;;;;4973248;28;20033;-54
2022/03/01 04:28:00;;;;;;;8.67;4.83;;;;;;;;;;4973390;28;20033;-55
2022/03/01 04:30:27;;;;;;;9.47;4.47;;;;;;;;;;4980989;28;20107;-56
2022/03/01 04:32:54;;;;;;;8.00;4.57;;;;;;;;;;4992719;28;20026;-53
2022/03/01 04:35:20;;;;;;;7.33;4.30;;;;;;;;;;4984015;28;20031;-55
2022/03/01 04:37:46;;;;;;;6.93;4.37;;;;;;;;;;4973169;28;20443;-55
2022/03/01 04:40:14;;;;;;;6.03;3.87;;;;;;;;;;4978598;28;20073;-55
2022/03/01 04:42:40;;;;;;;9.30;5.50;;;;;;;;;;4992730;28;20024;-57
2022/03/01 04:45:06;;;;;;;6.23;4.77;;;;;;;;;;4986080;28;20114;-56
2022/03/01 04:47:36;;;;;;;5.63;4.40;;;;;;;;;;4971862;28;20473;-56
2022/03/01 04:50:02;;;;;;;9.07;4.23;;;;;;;;;;4977856;28;20489;-58
2022/03/01 04:52:28;;;;;;;7.43;4.07;;;;;;;;;;4991166;28;20027;-56
2022/03/01 04:54:54;;;;;;;6.90;4.13;;;;;;;;;;4990343;28;20034;-56
2022/03/01 04:57:20;;;;;;;8.27;5.00;;;;;;;;;;4991498;28;20047;-55
2022/03/01 04:59:46;;;;;;;6.63;3.83;;;;;;;;;;4989294;28;20037;-56
2022/03/01 05:02:12;;;;;;;7.50;4.67;;;;;;;;;;4972857;28;20091;-56
2022/03/01 05:04:38;;;;;;;6.03;4.10;;;;;;;;;;4971331;28;20031;-56
2022/03/01 05:07:04;;;;;;;7.20;4.50;;;;;;;;;;4972937;28;20031;-58
2022/03/01 05:09:30;;;;;;;6.10;4.67;;;;;;;;;;4972277;28;20027;-54
2022/03/01 05:11:56;;;;;;;6.87;4.00;;;;;;;;;;4990737;28;20049;-54
2022/03/01 05:14:22;;;;;;;7.57;4.20;;;;;;;;;;4973192;28;20031;-55
2022/03/01 05:16:48;;;;;;;7.27;4.13;;;;;;;;;;4971925;28;20197;-56
2022/03/01 05:19:14;;;;;;;5.53;4.13;;;;;;;;;;4972484;28;20051;-57
2022/03/01 05:21:41;;;;;;;8.03;4.90;;;;;;;;;;4972553;28;20043;-56
2022/03/01 05:24:07;;;;;;;8.83;4.43;;;;;;;;;;4983084;28;20030;-56
2022/03/01 05:26:33;;;;;;;7.50;4.43;;;;;;;;;;4990972;28;20034;-55
2022/03/01 05:29:00;;;;;;;10.10;4.40;;;;;;;;;;4990791;28;20034;-54
2022/03/01 05:31:26;;;;;;;5.07;3.90;;;;;;;;;;4990577;28;20107;-56
2022/03/01 05:33:52;;;;;;;6.40;4.50;;;;;;;;;;4978672;28;20035;-56
2022/03/01 05:36:18;;;;;;;7.23;4.37;;;;;;;;;;4972510;28;20075;-54
2022/03/01 05:38:44;;;;;;;7.90;4.03;;;;;;;;;;4987482;28;20029;-55
2022/03/01 05:41:10;;;;;;;6.83;4.50;;;;;;;;;;4991779;28;20113;-57
2022/03/01 05:43:37;;;;;;;8.27;4.40;;;;;;;;;;4983662;28;20091;-55
2022/03/01 05:46:05;;;;;;;8.43;4.13;;;;;;;;;;4972172;28;20049;-55
2022/03/01 05:48:31;;;;;;;8.40;4.17;;;;;;;;;;4971909;28;20038;-57
2022/03/01 05:50:57;;;;;;;6.97;3.87;;;;;;;;;;4972145;28;20031;-56
2022/03/01 05:53:24;;;;;;;8.13;4.33;;;;;;;;;;4985159;28;20069;-57
2022/03/01 05:55:50;;;;;;;9.23;4.13;;;;;;;;;;4991331;28;20026;-56
2022/03/01 05:58:16;;;;;;;7.60;4.03;;;;;;;;;;4990597;28;20071;-56
2022/03/01 06:00:42;;;;;;;5.63;3.80;;;;;;;;;;4991587;28;20027;-57
2022/03/01 06:03:08;;;;;;;6.00;4.17;;;;;;;;;;4980605;28;20092;-55
2022/03/01 06:05:35;;;;;;;5.10;3.80;;;;;;;;;;4972037;28;20030;-54
2022/03/01 06:08:03;;;;;;;6.70;4.17;;;;;;;;;;4980430;28;20031;-55
2022/03/01 06:10:29;;;;;;;9.87;3.63;;;;;;;;;;4991600;28;20113;-57
2022/03/01 06:12:55;;;;;;;8.73;4.60;;;;;;;;;;4982608;28;20088;-57
2022/03/01 06:15:22;;;;;;;6.60;4.03;;;;;;;;;;4971641;28;20026;-54
2022/03/01 06:17:49;;;;;;;9.43;4.10;;;;;;;;;;4970454;28;20038;-53
2022/03/01 06:20:17;;;;;;;5.87;3.67;;;;;;;;;;4969927;28;20078;-56
2022/03/01 06:22:43;;;;;;;7.33;4.43;;;;;;;;;;4977313;28;20033;-55
2022/03/01 06:25:10;;;;;;;7.97;5.03;;;;;;;;;;4989743;28;20054;-57
2022/03/01 06:27:36;;;;;;;10.87;4.60;;;;;;;;;;4985555;28;20361;-53
2022/03/01 06:30:03;;;;;;;8.07;4.73;;;;;;;;;;4969098;28;20488;-55
2022/03/01 06:32:29;;;;;;;7.77;4.60;;;;;;;;;;4975510;28;20019;-56
2022/03/01 06:34:55;;;;;;;8.60;3.73;;;;;;;;;;4990909;28;20499;-56
2022/03/01 06:37:22;;;;;;;11.07;4.87;;;;;;;;;;4987091;28;20030;-53
2022/03/01 06:39:50;;;;;;;7.47;4.53;;;;;;;;;;4971075;28;20510;-57
2022/03/01 06:42:16;;;;;;;8.43;4.20;;;;;;;;;;4973013;28;20023;-56
2022/03/01 06:44:42;;;;;;;6.70;4.07;;;;;;;;;;4973829;28;20022;-58
2022/03/01 06:47:08;;;;;;;7.33;4.50;;;;;;;;;;4988654;28;20239;-56
2022/03/01 06:49:35;;;;;;;6.80;4.20;;;;;;;;;;4976783;28;20072;-56
2022/03/01 06:52:01;;;;;;;6.03;4.33;;;;;;;;;;4990706;28;20136;-56
2022/03/01 06:54:27;;;;;;;6.73;4.20;;;;;;;;;;4972024;28;20065;-57
2022/03/01 06:56:53;;;;;;;9.87;4.73;;;;;;;;;;4971217;28;20046;-56
2022/03/01 06:59:20;;;;;;;7.73;5.20;;;;;;;;;;4970067;28;20027;-56
2022/03/01 07:01:46;;;;;;;7.43;4.53;;;;;;;;;;4981125;28;20499;-54
2022/03/01 07:04:12;;;;;;;8.30;4.77;;;;;;;;;;4989398;28;20100;-56
2022/03/01 07:06:38;;;;;;;11.47;5.20;;;;;;;;;;4990759;28;20099;-56
2022/03/01 07:09:04;;;;;;;8.17;4.50;;;;;;;;;;4989194;28;20110;-55
2022/03/01 07:11:30;;;;;;;10.57;5.20;;;;;;;;;;4990812;28;20026;-54
2022/03/01 07:13:56;;;;;;;8.83;5.20;;;;;;;;;;4985632;28;20022;-57
2022/03/01 07:16:22;;;;;;;9.10;5.10;;;;;;;;;;4979806;28;20396;-57
2022/03/01 07:18:48;;;;;;;8.07;4.87;;;;;;;;;;4979797;28;20030;-58
2022/03/01 07:21:14;;;;;;;8.90;4.93;;;;;;;;;;4990198;28;20059;-54
2022/03/01 07:23:40;;;;;;;9.67;5.37;;;;;;;;;;4989024;28;20034;-55
2022/03/01 07:26:07;;;;;;;9.13;5.43;;;;;;;;;;4990256;28;20060;-55
2022/03/01 07:28:34;;;;;;;8.83;4.83;;;;;;;;;;4989104;28;20030;-56
2022/03/01 07:31:03;;;;;;;11.17;5.00;;;;;;;;;;4983915;28;20041;-57
2022/03/01 07:33:29;;;;;;;5.83;4.30;;;;;;;;;;4976227;28;20038;-57
2022/03/01 07:35:55;;;;;;;6.40;3.93;;;;;;;;;;4990101;28;20034;-56
2022/03/01 07:38:21;;;;;;;8.80;4.73;;;;;;;;;;4981044;28;20030;-54
2022/03/01 07:40:47;;;;;;;7.77;5.00;;;;;;;;;;4991468;28;20058;-57
2022/03/01 07:43:13;;;;;;;9.27;5.40;;;;;;;;;;4992185;28;20031;-56
2022/03/01 07:45:39;;;;;;;8.63;4.57;;;;;;;;;;4993500;28;20117;-57
2022/03/01 07:48:05;;;;;;;8.77;4.90;;;;;;;;;;4992451;28;20038;-62
2022/03/01 07:50:34;;;;;;;6.80;4.60;;;;;;;;;;4993363;28;20360;-58
2022/03/01 07:53:00;;;;;;;9.87;4.77;;;;;;;;;;4990094;28;20019;-59
2022/03/01 07:55:31;;;;;;;10.13;4.40;;;;;;;;;;4986549;28;20391;-57
2022/03/01 07:57:57;;;;;;;9.23;4.57;;;;;;;;;;4987008;28;20042;-57
2022/03/01 08:00:24;;;;;;;7.20;4.73;;;;;;;;;;4976387;28;20058;-58
2022/03/01 08:02:52;;;;;;;9.60;4.63;;;;;;;;;;4978879;28;20046;-57
2022/03/01 08:05:18;;;;;;;7.10;4.20;;;;;;;;;;4976617;28;20027;-55
2022/03/01 08:07:44;;;;;;;6.23;4.70;;;;;;;;;;4990228;28;20468;-57
2022/03/01 08:10:10;;;;;;;8.23;4.13;;;;;;;;;;4977799;28;20113;-57
2022/03/01 08:12:36;;;;;;;7.13;4.43;;;;;;;;;;4972637;28;20030;-54
2022/03/01 08:15:02;;;;;;;6.50;3.63;;;;;;;;;;4977455;28;20114;-58
2022/03/01 08:17:28;;;;;;;7.70;4.40;;;;;;;;;;4972706;28;20197;-58
2022/03/01 08:19:55;;;;;;;7.63;4.50;;;;;;;;;;4979782;28;20077;-57
2022/03/01 08:22:21;;;;;;;9.63;4.37;;;;;;;;;;4992384;28;20472;-57
2022/03/01 08:24:47;;;;;;;8.20;4.93;;;;;;;;;;4979584;28;20045;-57
2022/03/01 08:27:13;;;;;;;6.23;4.40;;;;;;;;;;4972781;28;20544;-63
2022/03/01 08:29:39;;;;;;;7.20;3.90;;;;;;;;;;4971254;28;20031;-61
2022/03/01 08:32:05;;;;;;;7.17;4.63;;;;;;;;;;4972728;28;20027;-61
2022/03/01 08:34:31;;;;;;;9.70;4.27;;;;;;;;;;4974505;28;20038;-58
2022/03/01 08:36:57;;;;;;;7.40;4.20;;;;;;;;;;4985015;28;20179;-57
2022/03/01 08:39:23;;;;;;;7.63;4.07;;;;;;;;;;4982364;28;20027;-57
2022/03/01 08:41:53;;;;;;;8.47;4.60;;;;;;;;;;4976874;28;20039;-57
2022/03/01 08:44:19;;;;;;;6.53;4.90;;;;;;;;;;4983207;28;20049;-58
2022/03/01 08:46:46;;;;;;;8.73;4.70;;;;;;;;;;4978869;28;20110;-57
2022/03/01 08:49:12;;;;;;;8.57;4.90;;;;;;;;;;4973339;28;20042;-57
2022/03/01 08:51:38;;;;;;;8.17;5.10;;;;;;;;;;4981089;28;20087;-56
2022/03/01 08:54:04;;;;;;;8.67;5.40;;;;;;;;;;4984350;28;20046;-57
2022/03/01 08:56:30;;;;;;;8.27;4.77;;;;;;;;;;4971409;28;20146;-56
2022/03/01 08:58:56;;;;;;;8.40;4.60;;;;;;;;;;4970369;28;20031;-56
2022/03/01 09:01:22;;;;;;;8.37;4.47;;;;;;;;;;4976735;28;20030;-57
2022/03/01 09:03:48;;;;;;;8.23;4.80;;;;;;;;;;4975726;28;20023;-57
2022/03/01 09:06:14;;;;;;;6.77;4.97;;;;;;;;;;4982662;28;20072;-58
2022/03/01 09:08:40;;;;;;;7.20;4.90;;;;;;;;;;4972601;28;20144;-58
2022/03/01 09:11:07;;;;;;;9.93;4.93;;;;;;;;;;4972159;28;20381;-56
2022/03/01 09:13:33;;;;;;;7.73;4.37;;;;;;;;;;4972088;28;20113;-57
2022/03/01 09:15:59;;;;;;;9.47;4.97;;;;;;;;;;4972758;28;20489;-56
2022/03/01 09:18:25;;;;;;;7.50;4.93;;;;;;;;;;4971815;28;20031;-58
2022/03/01 09:20:52;;;;;;;9.67;4.70;;;;;;;;;;4984530;28;20073;-57
2022/03/01 09:23:18;;;;;;;6.90;4.67;;;;;;;;;;4989456;28;20476;-56
2022/03/01 09:25:44;;;;;;;6.20;4.43;;;;;;;;;;4980026;28;20030;-57
2022/03/01 09:28:10;;;;;;;9.67;4.87;;;;;;;;;;4972873;28;20031;-57
2022/03/01 09:30:36;;;;;;;8.37;4.13;;;;;;;;;;4979641;28;20030;-58
2022/03/01 09:33:02;;;;;;;7.47;4.80;;;;;;;;;;4974876;28;20097;-57
2022/03/01 09:35:28;;;;;;;6.30;4.10;;;;;;;;;;4980781;28;20477;-57
2022/03/01 09:37:54;;;;;;;7.17;4.70;;;;;;;;;;4976011;28;20038;-57
2022/03/01 09:40:20;;;;;;;8.30;4.43;;;;;;;;;;4978823;28;20027;-54
2022/03/01 09:42:46;;;;;;;8.87;4.50;;;;;;;;;;4971354;28;20035;-55
2022/03/01 09:45:14;;;;;;;7.17;4.80;;;;;;;;;;4977275;28;20105;-56
2022/03/01 09:47:40;;;;;;;6.73;4.30;;;;;;;;;;4979938;28;20429;-56
2022/03/01 09:50:07;;;;;;;8.13;3.93;;;;;;;;;;4970289;28;20035;-56
2022/03/01 09:52:33;;;;;;;6.60;4.53;;;;;;;;;;4971412;28;20484;-56
2022/03/01 09:54:59;;;;;;;7.97;4.50;;;;;;;;;;4970026;28;20038;-57
2022/03/01 09:57:26;;;;;;;7.90;4.67;;;;;;;;;;4971644;28;20039;-57
2022/03/01 09:59:53;;;;;;;5.90;3.50;;;;;;;;;;4977574;28;20062;-58
2022/03/01 10:02:19;;;;;;;8.47;3.80;;;;;;;;;;4980745;28;20027;-57
2022/03/01 10:04:52;;;;;;;6.17;4.37;;;;;;;;;;4985083;28;20064;-58
2022/03/01 10:07:22;;;;;;;7.17;4.07;;;;;;;;;;4971366;28;20031;-58
2022/03/01 10:09:49;;;;;;;6.77;4.20;;;;;;;;;;4978052;28;20121;-57
2022/03/01 10:12:21;;;;;;;6.10;4.47;;;;;;;;;;4971149;28;20493;-56
2022/03/01 10:14:55;;;;;;;7.40;4.33;;;;;;;;;;4978024;28;20038;-56
2022/03/01 10:17:21;;;;;;;7.20;3.97;;;;;;;;;;4989265;28;20042;-57
2022/03/01 10:19:47;;;;;;;8.33;4.37;;;;;;;;;;4985734;28;20134;-57
2022/03/01 10:22:13;;;;;;;8.73;4.50;;;;;;;;;;4974321;28;20042;-57
2022/03/01 10:24:47;;;;;;;7.00;4.97;;;;;;;;;;4975953;28;20034;-56
2022/03/01 10:27:13;;;;;;;7.22;4.15;;;;;;;;;;4971244;28;20069;-57
2022/03/01 10:29:47;;;;;;;5.83;4.37;;;;;;;;;;4977586;28;20171;-55
2022/03/01 10:32:13;;;;;;;7.73;4.27;;;;;;;;;;4971080;28;20488;-57
2022/03/01 10:34:39;;;;;;;8.07;4.33;;;;;;;;;;4975849;28;20034;-57
2022/03/01 10:37:05;;;;;;;7.67;3.93;;;;;;;;;;4970943;28;20572;-57
2022/03/01 10:39:33;;;;;;;6.33;4.20;;;;;;;;;;4975060;28;20018;-57
2022/03/01 10:41:59;;;;;;;7.73;4.50;;;;;;;;;;4978425;28;20042;-56
2022/03/01 10:44:29;;;;;;;8.30;5.47;;;;;;;;;;4982038;28;20037;-58
2022/03/01 10:46:57;;;;;;;6.97;4.80;;;;;;;;;;4974293;28;20030;-58
2022/03/01 10:49:24;;;;;;;7.40;5.20;;;;;;;;;;4970626;28;20019;-55
2022/03/01 10:51:50;;;;;;;6.07;4.33;;;;;;;;;;4973104;28;20126;-56
2022/03/01 10:54:36;;;;;;;9.37;4.43;;;;;;;;;;4970084;28;20049;-55
2022/03/01 10:57:04;;;;;;;7.30;4.63;;;;;;;;;;4977594;28;20485;-57
2022/03/01 10:59:31;;;;;;;7.33;4.50;;;;;;;;;;4977921;28;20067;-58
2022/03/01 11:01:57;;;;;;;6.30;4.50;;;;;;;;;;4977787;28;20046;-57
2022/03/01 11:04:27;;;;;;;6.90;4.00;;;;;;;;;;4976056;28;20054;-57
2022/03/01 11:06:58;;;;;;;8.70;4.40;;;;;;;;;;4977929;28;20033;-57
2022/03/01 11:09:25;;;;;;;8.90;5.00;;;;;;;;;;4968925;28;20084;-56
2022/03/01 11:11:52;;;;;;;9.77;5.90;;;;;;;;;;4976410;28;20031;-56
2022/03/01 11:14:23;;;;;;;6.87;4.17;;;;;;;;;;4970521;28;20027;-57
2022/03/01 11:16:58;;;;;;;6.77;4.33;;;;;;;;;;4980224;28;20096;-57
2022/03/01 11:19:38;;;;;;;8.57;4.40;;;;;;;;;;4975168;28;20062;-56
2022/03/01 11:22:05;;;;;;;7.77;4.20;;;;;;;;;;4985222;28;20033;-56
2022/03/01 11:24:32;;;;;;;7.23;5.00;;;;;;;;;;4983718;28;20141;-55
2022/03/01 11:27:04;;;;;;;6.97;4.60;;;;;;;;;;4986962;28;20054;-57
2022/03/01 11:29:37;;;;;;;6.70;4.50;;;;;;;;;;4991277;28;20484;-57
2022/03/01 11:32:08;;;;;;;7.87;4.77;;;;;;;;;;4976267;28;20027;-58
2022/03/01 11:34:34;;;;;;;10.03;5.17;;;;;;;;;;4986787;28;20477;-56
2022/03/01 11:37:00;;;;;;;8.23;4.77;;;;;;;;;;4985852;28;20118;-54
2022/03/01 11:39:30;;;;;;;5.37;4.37;;;;;;;;;;4978104;28;20027;-56
2022/03/01 11:42:04;;;;;;;5.83;4.53;;;;;;;;;;4979484;28;20602;-55
2022/03/01 11:44:33;;;;;;;8.55;4.75;;;;;;;;;;4973373;28;20489;-56
2022/03/01 11:46:59;;;;;;;7.37;4.63;;;;;;;;;;4980407;28;20113;-56
2022/03/01 11:49:26;;;;;;;8.67;4.80;;;;;;;;;;4992499;28;20403;-56
2022/03/01 11:51:56;;;;;;;7.67;4.63;;;;;;;;;;4985388;28;20039;-57
2022/03/01 11:54:23;;;;;;;6.57;4.90;;;;;;;;;;4991352;28;20031;-57
2022/03/01 11:56:53;;;;;;;8.63;4.93;;;;;;;;;;4985685;28;20089;-57
2022/03/01 11:59:19;;;;;;;7.57;5.33;;;;;;;;;;4972974;28;20022;-58
2022/03/01 12:01:46;;;;;;;6.33;5.17;;;;;;;;;;4980662;28;20064;-57
2022/03/01 12:04:12;;;;;;;8.17;5.40;;;;;;;;;;4992392;28;20030;-56
2022/03/01 12:06:39;;;;;;;6.43;4.73;;;;;;;;;;4986337;28;20076;-57
2022/03/01 12:09:10;;;;;;;8.57;5.10;;;;;;;;;;4984933;28;20051;-58
2022/03/01 12:11:40;;;;;;;7.07;5.37;;;;;;;;;;4977894;28;20109;-57
2022/03/01 12:14:18;;;;;;;7.37;5.27;;;;;;;;;;4980622;28;20102;-57
2022/03/01 12:16:44;;;;;;;6.77;5.40;;;;;;;;;;4982753;28;20489;-59
2022/03/01 12:19:11;;;;;;;9.00;5.57;;;;;;;;;;4972524;28;20098;-57
2022/03/01 12:21:38;;;;;;;7.87;5.60;;;;;;;;;;4974841;28;20121;-57
2022/03/01 12:24:05;;;;;;;7.73;5.00;;;;;;;;;;4972792;28;20035;-57
2022/03/01 12:26:31;;;;;;;10.00;5.83;;;;;;;;;;4977472;28;20046;-58
2022/03/01 12:28:59;;;;;;;8.10;5.60;;;;;;;;;;4972319;28;20388;-56
2022/03/01 12:31:27;;;;;;;6.17;5.47;;;;;;;;;;4987751;28;20109;-57
2022/03/01 12:34:04;;;;;;;8.27;5.70;;;;;;;;;;4972428;28;20027;-57
2022/03/01 12:36:31;;;;;;;8.30;6.03;;;;;;;;;;4973782;28;20126;-56
2022/03/01 12:38:59;;;;;;;8.67;5.80;;;;;;;;;;4979739;28;20027;-58
2022/03/01 12:41:25;;;;;;;10.37;5.90;;;;;;;;;;4973348;28;20022;-57
2022/03/01 12:43:53;;;;;;;7.27;6.00;;;;;;;;;;4972147;28;20073;-56
2022/03/01 12:46:32;;;;;;;7.73;6.03;;;;;;;;;;4985579;28;20033;-56
2022/03/01 12:48:58;;;;;;;9.47;6.53;;;;;;;;;;4991082;28;20507;-57
2022/03/01 12:51:25;;;;;;;7.77;5.83;;;;;;;;;;4987111;28;20023;-57
2022/03/01 12:53:55;;;;;;;9.47;6.73;;;;;;;;;;4990265;28;20410;-56
2022/03/01 12:56:22;;;;;;;9.40;6.10;;;;;;;;;;4992132;28;20038;-57
2022/03/01 12:58:49;;;;;;;8.43;6.47;;;;;;;;;;4973949;28;20034;-58
2022/03/01 13:04:22;;;;;;;8.53;5.53;;;;;;;;;;4985135;28;20050;-58
2022/03/01 13:06:48;;;;;;;9.83;6.30;;;;;;;;;;4983983;28;20026;-58
2022/03/01 13:09:15;;;;;;;7.33;5.77;;;;;;;;;;4991795;28;20026;-58
2022/03/01 13:11:41;;;;;;;9.30;6.90;;;;;;;;;;4990931;28;20030;-57
2022/03/01 13:14:08;;;;;;;9.77;6.80;;;;;;;;;;4980642;28;20046;-56
2022/03/01 13:16:38;;;;;;;8.53;6.20;;;;;;;;;;4978027;28;20035;-56
2022/03/01 13:19:12;;;;;;;8.37;6.23;;;;;;;;;;4984641;28;20683;-57
2022/03/01 13:21:48;;;;;;;7.97;6.40;;;;;;;;;;4986616;28;20049;-58
2022/03/01 13:24:17;;;;;;;11.33;7.37;;;;;;;;;;4985115;28;20063;-56
2022/03/01 13:26:44;;;;;;;11.37;6.80;;;;;;;;;;4977665;28;20030;-58
2022/03/01 13:29:11;;;;;;;9.10;6.93;;;;;;;;;;4992027;28;20116;-56
2022/03/01 13:37:47;;;;;;;10.07;7.37;;;;;;;;;;4970587;28;20433;-58
2022/03/01 13:40:15;;;;;;;10.25;6.18;;;;;;;;;;4976113;28;20379;-57
2022/03/01 13:42:41;;;;;;;11.30;6.97;;;;;;;;;;4982873;28;20038;-56
2022/03/01 13:45:11;;;;;;;9.27;7.37;;;;;;;;;;4990506;28;20029;-59
2022/03/01 13:47:38;;;;;;;9.47;7.13;;;;;;;;;;4980469;28;20080;-58
2022/03/01 13:50:05;;;;;;;9.67;7.73;;;;;;;;;;4972106;28;20116;-58
2022/03/01 13:52:35;;;;;;;10.00;7.90;;;;;;;;;;4981093;28;20026;-57
2022/03/01 13:55:11;;;;;;;10.43;7.27;;;;;;;;;;5008752;28;20033;-58
2022/03/01 13:57:39;;;;;;;10.23;7.10;;;;;;;;;;4997932;28;20041;-58
2022/03/01 14:00:08;;;;;;;9.10;7.30;;;;;;;;;;4989923;28;20037;-55
2022/03/01 14:02:35;;;;;;;10.68;8.05;;;;;;;;;;4978866;28;20033;-54
2022/03/01 14:05:04;;;;;;;9.53;7.23;;;;;;;;;;4971658;28;20463;-58
2022/03/01 14:07:30;;;;;;;9.07;7.28;;;;;;;;;;4980458;28;20030;-58
2022/03/01 14:09:56;;;;;;;9.33;7.17;;;;;;;;;;4991201;28;20019;-56
2022/03/01 14:12:32;;;;;;;9.13;6.87;;;;;;;;;;4990263;28;20030;-56
2022/03/01 14:14:58;;;;;;;11.30;7.53;;;;;;;;;;4989587;28;20037;-58
2022/03/01 14:17:25;;;;;;;9.40;7.00;;;;;;;;;;4989691;28;20049;-56
2022/03/01 14:19:54;;;;;;;8.40;6.95;;;;;;;;;;4990783;28;20050;-56
2022/03/01 14:22:21;;;;;;;10.57;7.37;;;;;;;;;;4988831;28;20045;-58
2022/03/01 14:27:50;;;;;;;11.65;7.35;;;;;;;;;;4980406;28;20108;-57
2022/03/01 14:30:16;;;;;;;8.60;7.20;;;;;;;;;;4977616;28;20034;-58
2022/03/01 14:32:46;;;;;;;9.43;7.30;;;;;;;;;;4986955;28;20031;-58
2022/03/01 14:35:12;;;;;;;9.05;7.25;;;;;;;;;;4985137;28;20054;-56
2022/03/01 14:37:38;;;;;;;10.20;7.05;;;;;;;;;;4985072;28;20133;-54
2022/03/01 14:40:05;;;;;;;10.07;7.23;;;;;;;;;;4986721;28;20018;-55
2022/03/01 14:42:31;;;;;;;9.53;7.67;;;;;;;;;;4986785;28;20022;-57
2022/03/01 14:44:57;;;;;;;10.00;7.40;;;;;;;;;;4982623;28;20027;-57
2022/03/01 14:47:23;;;;;;;12.10;7.78;;;;;;;;;;4981660;28;20030;-57
2022/03/01 14:49:49;;;;;;;9.90;7.20;;;;;;;;;;4978825;28;20095;-58
2022/03/01 14:52:16;;;;;;;9.43;7.35;;;;;;;;;;4987240;28;20034;-57
2022/03/01 14:54:42;;;;;;;11.37;7.90;;;;;;;;;;4988441;28;20421;-58
2022/03/01 14:57:08;;;;;;;10.63;6.60;;;;;;;;;;4986448;28;20133;-58
2022/03/01 14:59:34;;;;;;;10.77;7.17;;;;;;;;;;4987917;28;20027;-56
2022/03/01 15:05:05;;;;;;;14.82;7.78;;;;;;;;;;4985101;28;20024;-58